createdAt,value
2022-09-25T00:02:01.414Z,15.10
2022-09-25T00:04:28.644Z,15.00
2022-09-25T00:06:55.337Z,15.00
2022-09-25T00:09:23.573Z,15.00
2022-09-25T00:11:50.766Z,15.00
2022-09-25T00:14:17.582Z,15.00
2022-09-25T00:16:44.413Z,15.00
2022-09-25T00:19:36.145Z,15.00
2022-09-25T00:22:02.872Z,15.00
2022-09-25T00:24:29.643Z,15.00
2022-09-25T00:26:56.329Z,15.00
2022-09-25T00:29:23.056Z,15.00
2022-09-25T00:31:49.854Z,15.00
2022-09-25T00:34:16.721Z,15.10
2022-09-25T00:36:43.464Z,15.10
2022-09-25T00:39:10.348Z,15.10
2022-09-25T00:41:37.128Z,15.10
2022-09-25T00:44:04.378Z,15.10
2022-09-25T00:46:35.562Z,15.10
2022-09-25T00:49:04.344Z,15.10
2022-09-25T00:51:38.876Z,15.10
2022-09-25T00:54:07.078Z,15.00
2022-09-25T00:56:44.723Z,14.90
2022-09-25T00:59:13.518Z,14.90
2022-09-25T01:01:40.571Z,14.90
2022-09-25T01:04:08.089Z,14.80
2022-09-25T01:06:35.598Z,14.80
2022-09-25T01:09:02.479Z,14.80
2022-09-25T01:11:31.112Z,14.80
2022-09-25T01:13:59.665Z,14.90
2022-09-25T01:16:38.373Z,14.80
2022-09-25T01:19:10.992Z,14.90
2022-09-25T01:21:44.797Z,14.90
2022-09-25T01:24:24.301Z,14.80
2022-09-25T01:27:20.355Z,14.80
2022-09-25T01:30:05.685Z,14.80
2022-09-25T01:32:38.627Z,14.80
2022-09-25T01:35:05.322Z,14.80
2022-09-25T01:37:47.637Z,14.70
2022-09-25T01:40:17.341Z,14.60
2022-09-25T01:43:14.669Z,14.70
2022-09-25T01:45:48.653Z,14.80
2022-09-25T01:48:16.995Z,14.70
2022-09-25T01:50:49.326Z,14.70
2022-09-25T01:53:17.974Z,14.70
2022-09-25T01:55:47.801Z,14.80
2022-09-25T01:58:14.626Z,14.90
2022-09-25T02:00:43.143Z,14.90
2022-09-25T02:03:12.760Z,14.90
2022-09-25T02:05:42.499Z,14.80
2022-09-25T02:08:14.139Z,14.80
2022-09-25T02:10:46.760Z,14.80
2022-09-25T02:13:15.621Z,14.80
2022-09-25T02:15:51.669Z,14.80
2022-09-25T02:18:38.369Z,14.80
2022-09-25T02:21:08.113Z,15.00
2022-09-25T02:23:53.346Z,15.00
2022-09-25T02:26:25.862Z,14.90
2022-09-25T02:28:53.903Z,14.80
2022-09-25T02:31:22.842Z,14.90
2022-09-25T02:33:50.191Z,14.70
2022-09-25T02:36:19.160Z,14.70
2022-09-25T02:38:46.628Z,14.80
2022-09-25T02:41:16.321Z,14.90
2022-09-25T02:44:01.544Z,14.90
2022-09-25T02:46:35.760Z,14.80
2022-09-25T02:49:15.370Z,14.90
2022-09-25T02:51:47.188Z,14.90
2022-09-25T02:54:18.572Z,14.90
2022-09-25T02:56:48.909Z,14.90
2022-09-25T02:59:19.494Z,14.90
2022-09-25T03:01:48.053Z,14.90
2022-09-25T03:04:16.667Z,14.80
2022-09-25T03:06:44.027Z,14.60
2022-09-25T03:09:11.405Z,14.60
2022-09-25T03:11:42.259Z,14.70
2022-09-25T03:14:09.156Z,14.70
2022-09-25T03:17:05.257Z,14.80
2022-09-25T03:19:32.865Z,14.80
2022-09-25T03:22:00.354Z,14.80
2022-09-25T03:24:27.299Z,14.80
2022-09-25T03:26:54.500Z,14.80
2022-09-25T03:29:21.571Z,14.80
2022-09-25T03:31:48.737Z,14.80
2022-09-25T03:34:16.464Z,14.80
2022-09-25T03:36:47.559Z,14.90
2022-09-25T03:39:15.552Z,14.80
2022-09-25T03:41:44.025Z,14.80
2022-09-25T03:44:11.082Z,14.80
2022-09-25T03:46:37.978Z,14.80
2022-09-25T03:49:04.865Z,14.70
2022-09-25T03:51:32.223Z,14.70
2022-09-25T03:53:58.907Z,14.80
2022-09-25T03:56:27.146Z,14.90
2022-09-25T03:58:55.305Z,14.80
2022-09-25T04:01:22.682Z,14.80
2022-09-25T04:03:49.833Z,14.80
2022-09-25T04:06:18.396Z,14.60
2022-09-25T04:08:46.506Z,14.70
2022-09-25T04:11:13.661Z,14.60
2022-09-25T04:13:44.171Z,14.60
2022-09-25T04:16:11.549Z,14.60
2022-09-25T04:18:38.668Z,14.60
2022-09-25T04:21:06.485Z,14.70
2022-09-25T04:23:33.281Z,14.80
2022-09-25T04:26:00.065Z,14.80
2022-09-25T04:28:27.270Z,14.80
2022-09-25T04:30:54.020Z,14.70
2022-09-25T04:33:39.502Z,14.80
2022-09-25T04:36:06.583Z,14.70
2022-09-25T04:38:33.499Z,14.70
2022-09-25T04:41:01.587Z,14.70
2022-09-25T04:43:29.453Z,14.60
2022-09-25T04:46:00.381Z,14.60
2022-09-25T04:48:27.123Z,14.60
2022-09-25T04:50:53.808Z,14.70
2022-09-25T04:53:20.600Z,14.60
2022-09-25T04:55:48.084Z,14.70
2022-09-25T04:58:14.929Z,14.60
2022-09-25T05:00:42.689Z,14.70
2022-09-25T05:03:09.589Z,14.70
2022-09-25T05:05:36.533Z,14.70
2022-09-25T05:08:03.727Z,14.70
2022-09-25T05:10:31.965Z,14.80
2022-09-25T05:13:02.979Z,14.70
2022-09-25T05:15:31.692Z,14.70
2022-09-25T05:18:01.854Z,14.70
2022-09-25T05:20:28.718Z,14.70
2022-09-25T05:22:56.436Z,14.70
2022-09-25T05:25:25.153Z,14.80
2022-09-25T05:27:55.805Z,14.70
2022-09-25T05:30:22.862Z,14.70
2022-09-25T05:32:50.281Z,14.50
2022-09-25T05:35:20.925Z,14.50
2022-09-25T05:37:47.800Z,14.60
2022-09-25T05:40:16.153Z,14.60
2022-09-25T05:42:44.173Z,14.60
2022-09-25T05:45:12.016Z,14.70
2022-09-25T05:47:39.133Z,14.70
2022-09-25T05:50:06.556Z,14.90
2022-09-25T05:52:33.268Z,15.10
2022-09-25T05:55:00.854Z,15.20
2022-09-25T05:57:30.279Z,15.20
2022-09-25T05:59:57.152Z,15.30
2022-09-25T06:02:23.862Z,15.30
2022-09-25T06:04:50.618Z,15.30
2022-09-25T06:07:17.518Z,15.30
2022-09-25T06:09:44.229Z,15.30
2022-09-25T06:12:10.939Z,15.30
2022-09-25T06:14:37.685Z,15.40
2022-09-25T06:17:04.482Z,15.40
2022-09-25T06:19:31.238Z,15.40
2022-09-25T06:21:57.999Z,15.20
2022-09-25T06:24:24.776Z,15.20
2022-09-25T06:26:51.442Z,15.40
2022-09-25T06:29:18.174Z,15.40
2022-09-25T06:31:44.899Z,15.50
2022-09-25T06:34:12.447Z,15.70
2022-09-25T06:36:39.306Z,15.80
2022-09-25T06:39:06.034Z,15.90
2022-09-25T06:41:32.797Z,15.80
2022-09-25T06:44:02.205Z,16.10
2022-09-25T06:46:28.954Z,16.40
2022-09-25T06:48:57.278Z,16.60
2022-09-25T06:51:24.954Z,16.80
2022-09-25T06:53:54.829Z,17.00
2022-09-25T06:56:21.612Z,17.10
2022-09-25T06:58:48.514Z,17.20
2022-09-25T07:01:15.474Z,17.30
2022-09-25T07:03:45.142Z,17.40
2022-09-25T07:06:13.291Z,17.60
2022-09-25T07:08:40.173Z,17.80
2022-09-25T07:11:07.029Z,17.80
2022-09-25T07:13:35.008Z,18.00
2022-09-25T07:16:18.440Z,17.90
2022-09-25T07:18:46.560Z,17.90
2022-09-25T07:21:13.306Z,17.90
2022-09-25T07:23:42.035Z,17.90
2022-09-25T07:26:10.799Z,17.80
2022-09-25T07:28:39.237Z,18.00
2022-09-25T07:31:12.493Z,18.40
2022-09-25T07:33:39.250Z,18.70
2022-09-25T07:36:06.845Z,18.90
2022-09-25T07:38:34.496Z,18.80
2022-09-25T07:41:01.284Z,18.70
2022-09-25T07:43:27.961Z,18.60
2022-09-25T07:45:54.860Z,18.80
2022-09-25T07:48:22.044Z,19.00
2022-09-25T07:50:50.131Z,18.80
2022-09-25T07:53:20.083Z,18.80
2022-09-25T07:55:46.912Z,18.70
2022-09-25T07:58:14.604Z,18.70
2022-09-25T08:00:41.467Z,18.50
2022-09-25T08:03:08.769Z,18.30
2022-09-25T08:05:35.484Z,18.50
2022-09-25T08:08:02.438Z,18.70
2022-09-25T08:10:29.197Z,19.10
2022-09-25T08:12:56.166Z,19.30
2022-09-25T08:15:22.871Z,19.50
2022-09-25T08:17:49.717Z,19.60
2022-09-25T08:20:16.515Z,19.60
2022-09-25T08:22:43.285Z,19.60
2022-09-25T08:25:11.251Z,19.80
2022-09-25T08:27:41.029Z,19.90
2022-09-25T08:30:08.981Z,19.90
2022-09-25T08:32:36.534Z,19.90
2022-09-25T08:35:03.763Z,20.10
2022-09-25T08:37:32.058Z,20.40
2022-09-25T08:39:59.419Z,20.30
2022-09-25T08:42:34.959Z,20.20
2022-09-25T08:45:22.758Z,20.30
2022-09-25T08:48:10.151Z,20.30
2022-09-25T08:50:37.609Z,20.20
2022-09-25T08:53:07.346Z,20.20
2022-09-25T08:55:53.787Z,20.40
2022-09-25T08:58:24.868Z,20.40
2022-09-25T09:00:54.234Z,20.40
2022-09-25T09:03:22.854Z,20.50
2022-09-25T09:05:51.846Z,20.40
2022-09-25T09:08:20.430Z,20.30
2022-09-25T09:10:52.876Z,20.50
2022-09-25T09:13:35.229Z,20.30
2022-09-25T09:16:20.840Z,20.50
2022-09-25T09:18:47.563Z,20.70
2022-09-25T09:21:22.513Z,21.00
2022-09-25T09:24:07.477Z,21.10
2022-09-25T09:26:37.034Z,21.00
2022-09-25T09:29:03.755Z,21.30
2022-09-25T09:31:50.064Z,21.30
2022-09-25T09:34:53.046Z,21.10
2022-09-25T09:37:22.430Z,21.30
2022-09-25T09:39:49.111Z,21.00
2022-09-25T09:42:16.354Z,21.00
2022-09-25T09:44:52.521Z,21.10
2022-09-25T09:47:22.642Z,21.00
2022-09-25T09:50:01.193Z,20.70
2022-09-25T09:52:36.048Z,20.70
2022-09-25T09:55:13.266Z,21.50
2022-09-25T09:57:44.292Z,22.50
2022-09-25T10:00:15.657Z,22.70
2022-09-25T10:02:44.422Z,22.80
2022-09-25T10:05:29.773Z,22.20
2022-09-25T10:07:56.594Z,22.00
2022-09-25T10:10:28.570Z,22.40
2022-09-25T10:12:55.317Z,22.60
2022-09-25T10:15:28.325Z,22.30
2022-09-25T10:17:55.819Z,22.00
2022-09-25T10:20:23.685Z,21.90
2022-09-25T10:22:52.310Z,21.70
2022-09-25T10:25:35.211Z,21.80
2022-09-25T10:28:21.109Z,21.60
2022-09-25T10:30:48.232Z,21.70
2022-09-25T10:33:18.501Z,21.80
2022-09-25T10:35:46.177Z,22.10
2022-09-25T10:38:22.818Z,22.40
2022-09-25T10:41:03.317Z,22.70
2022-09-25T10:43:30.141Z,22.50
2022-09-25T10:46:14.220Z,22.60
2022-09-25T10:49:00.317Z,22.70
2022-09-25T10:51:27.238Z,22.60
2022-09-25T10:54:09.432Z,22.40
2022-09-25T10:56:39.062Z,22.80
2022-09-25T10:59:24.193Z,22.70
2022-09-25T11:01:53.110Z,22.90
2022-09-25T11:04:30.491Z,23.20
2022-09-25T11:07:01.985Z,23.00
2022-09-25T11:09:29.858Z,22.60
2022-09-25T11:12:18.771Z,22.60
2022-09-25T11:14:55.325Z,22.80
2022-09-25T11:17:37.040Z,22.80
2022-09-25T11:20:29.275Z,22.90
2022-09-25T11:23:08.390Z,22.60
2022-09-25T11:25:53.018Z,22.80
2022-09-25T11:28:26.108Z,22.90
2022-09-25T11:31:00.339Z,22.50
2022-09-25T11:33:36.159Z,22.30
2022-09-25T11:36:17.216Z,22.40
2022-09-25T11:39:06.847Z,22.60
2022-09-25T11:41:37.130Z,22.70
2022-09-25T11:44:19.506Z,22.90
2022-09-25T11:46:59.888Z,23.40
2022-09-25T11:49:28.311Z,23.40
2022-09-25T11:52:16.386Z,22.60
2022-09-25T11:54:49.466Z,22.30
2022-09-25T11:57:32.017Z,22.10
2022-09-25T12:00:01.116Z,22.00
2022-09-25T12:02:57.298Z,22.20
2022-09-25T12:05:24.137Z,22.30
2022-09-25T12:08:03.553Z,22.70
2022-09-25T12:10:54.061Z,22.70
2022-09-25T12:13:21.077Z,22.80
2022-09-25T12:15:53.947Z,22.90
2022-09-25T12:18:40.398Z,22.60
2022-09-25T12:21:10.197Z,22.80
2022-09-25T12:23:50.490Z,22.80
2022-09-25T12:26:35.422Z,22.70
2022-09-25T12:29:28.241Z,22.40
2022-09-25T12:32:04.500Z,22.80
2022-09-25T12:34:56.667Z,23.00
2022-09-25T12:37:45.024Z,22.80
2022-09-25T12:40:23.153Z,22.50
2022-09-25T12:43:03.210Z,22.70
2022-09-25T12:45:33.325Z,22.50
2022-09-25T12:48:00.050Z,22.30
2022-09-25T12:50:29.412Z,22.60
2022-09-25T12:53:02.153Z,22.50
2022-09-25T12:55:34.758Z,22.40
2022-09-25T12:58:01.471Z,22.40
2022-09-25T13:00:31.556Z,22.30
2022-09-25T13:03:01.817Z,22.60
2022-09-25T13:05:34.454Z,23.00
2022-09-25T13:08:01.192Z,22.70
2022-09-25T13:10:41.398Z,22.80
2022-09-25T13:13:13.490Z,22.80
2022-09-25T13:15:42.846Z,22.90
2022-09-25T13:18:16.133Z,23.40
2022-09-25T13:20:53.304Z,23.80
2022-09-25T13:23:26.611Z,24.10
2022-09-25T13:26:00.315Z,23.70
2022-09-25T13:28:29.796Z,23.30
2022-09-25T13:30:57.753Z,22.90
2022-09-25T13:33:24.820Z,22.70
2022-09-25T13:36:04.861Z,22.60
2022-09-25T13:38:50.268Z,22.80
2022-09-25T13:41:17.145Z,23.00
2022-09-25T13:43:44.286Z,23.00
2022-09-25T13:46:18.007Z,22.90
2022-09-25T13:48:44.776Z,23.20
2022-09-25T13:51:18.151Z,23.40
2022-09-25T13:54:03.496Z,23.20
2022-09-25T13:56:33.281Z,22.90
2022-09-25T13:59:02.151Z,22.70
2022-09-25T14:01:36.555Z,22.80
2022-09-25T14:04:08.633Z,22.90
2022-09-25T14:06:39.103Z,22.60
2022-09-25T14:09:08.904Z,22.60
2022-09-25T14:11:37.936Z,22.40
2022-09-25T14:14:07.460Z,22.20
2022-09-25T14:16:35.502Z,22.20
2022-09-25T14:19:03.260Z,22.60
2022-09-25T14:21:30.834Z,22.80
2022-09-25T14:23:58.264Z,22.80
2022-09-25T14:26:26.481Z,22.60
2022-09-25T14:28:54.577Z,22.40
2022-09-25T14:31:34.467Z,22.30
2022-09-25T14:34:19.747Z,22.20
2022-09-25T14:36:47.247Z,22.30
2022-09-25T14:39:20.073Z,22.40
2022-09-25T14:41:55.828Z,22.30
2022-09-25T14:44:31.858Z,22.30
2022-09-25T14:46:58.722Z,22.20
2022-09-25T14:49:27.747Z,22.10
2022-09-25T14:51:56.543Z,22.00
2022-09-25T14:54:25.103Z,22.20
2022-09-25T14:56:55.595Z,22.30
2022-09-25T14:59:28.596Z,22.20
2022-09-25T15:01:55.517Z,22.00
2022-09-25T15:04:25.728Z,22.10
2022-09-25T15:07:00.153Z,21.90
2022-09-25T15:09:28.885Z,22.00
2022-09-25T15:11:55.861Z,22.00
2022-09-25T15:14:22.781Z,21.80
2022-09-25T15:17:08.138Z,21.80
2022-09-25T15:19:38.804Z,21.80
2022-09-25T15:22:12.609Z,21.90
2022-09-25T15:24:45.219Z,21.70
2022-09-25T15:27:13.468Z,21.70
2022-09-25T15:29:42.714Z,21.60
2022-09-25T15:32:16.599Z,21.70
2022-09-25T15:34:43.413Z,21.50
2022-09-25T15:37:26.291Z,21.40
2022-09-25T15:39:53.531Z,21.40
2022-09-25T15:42:20.364Z,21.30
2022-09-25T15:44:47.878Z,21.20
2022-09-25T15:47:33.434Z,21.20
2022-09-25T15:50:00.751Z,21.30
2022-09-25T15:52:32.625Z,21.40
2022-09-25T15:55:05.999Z,21.30
2022-09-25T15:57:33.355Z,21.20
2022-09-25T16:00:23.668Z,21.20
2022-09-25T16:03:32.437Z,20.90
2022-09-25T16:06:01.800Z,20.80
2022-09-25T16:08:31.715Z,20.90
2022-09-25T16:11:20.874Z,20.90
2022-09-25T16:13:49.163Z,20.70
2022-09-25T16:16:22.161Z,20.70
2022-09-25T16:18:49.325Z,20.60
2022-09-25T16:21:19.510Z,20.50
2022-09-25T16:24:12.806Z,20.60
2022-09-25T16:26:41.963Z,20.60
2022-09-25T16:29:12.499Z,20.60
2022-09-25T16:31:40.638Z,20.50
2022-09-25T16:34:15.303Z,20.50
2022-09-25T16:36:43.429Z,20.40
2022-09-25T16:39:10.241Z,20.40
2022-09-25T16:41:37.701Z,20.30
2022-09-25T16:44:19.433Z,20.30
2022-09-25T16:46:47.389Z,20.20
2022-09-25T16:49:14.346Z,20.20
2022-09-25T16:51:45.498Z,20.00
2022-09-25T16:54:13.929Z,20.00
2022-09-25T16:56:42.950Z,20.00
2022-09-25T16:59:16.283Z,19.90
2022-09-25T17:01:43.398Z,19.90
2022-09-25T17:04:11.272Z,19.80
2022-09-25T17:06:40.935Z,19.80
2022-09-25T17:09:12.226Z,19.80
2022-09-25T17:11:39.853Z,19.70
2022-09-25T17:14:06.879Z,19.70
2022-09-25T17:16:34.474Z,19.60
2022-09-25T17:19:06.623Z,19.50
2022-09-25T17:21:34.088Z,19.50
2022-09-25T17:24:00.917Z,19.60
2022-09-25T17:26:27.812Z,19.60
2022-09-25T17:28:54.708Z,19.40
2022-09-25T17:31:22.254Z,19.40
2022-09-25T17:33:52.175Z,19.30
2022-09-25T17:36:19.125Z,19.30
2022-09-25T17:38:46.233Z,19.40
2022-09-25T17:41:17.910Z,19.40
2022-09-25T17:43:44.773Z,19.30
2022-09-25T17:46:11.662Z,19.30
2022-09-25T17:48:38.655Z,19.30
2022-09-25T17:51:14.636Z,19.30
2022-09-25T17:53:41.734Z,19.20
2022-09-25T17:56:09.355Z,19.20
2022-09-25T17:58:36.384Z,19.20
2022-09-25T18:01:07.322Z,19.20
2022-09-25T18:03:34.168Z,19.10
2022-09-25T18:06:00.959Z,19.10
2022-09-25T18:08:27.747Z,19.10
2022-09-25T18:10:55.311Z,19.10
2022-09-25T18:13:22.122Z,19.10
2022-09-25T18:15:50.894Z,19.00
2022-09-25T18:18:17.699Z,18.90
2022-09-25T18:21:08.338Z,18.90
2022-09-25T18:23:38.376Z,18.80
2022-09-25T18:26:06.908Z,18.80
2022-09-25T18:28:33.905Z,18.70
2022-09-25T18:31:00.751Z,18.70
2022-09-25T18:33:27.675Z,18.60
2022-09-25T18:35:54.660Z,18.60
2022-09-25T18:38:21.514Z,18.60
2022-09-25T18:40:48.321Z,18.60
2022-09-25T18:43:15.188Z,18.60
2022-09-25T18:45:47.509Z,18.50
2022-09-25T18:48:14.241Z,18.50
2022-09-25T18:50:41.746Z,18.50
2022-09-25T18:53:08.552Z,18.40
2022-09-25T18:55:35.352Z,18.40
2022-09-25T18:58:02.072Z,18.30
2022-09-25T19:00:28.854Z,18.30
2022-09-25T19:02:55.845Z,18.20
2022-09-25T19:05:22.635Z,18.10
2022-09-25T19:07:49.379Z,18.20
2022-09-25T19:10:16.218Z,18.20
2022-09-25T19:12:43.517Z,18.20
2022-09-25T19:15:10.425Z,18.10
2022-09-25T19:17:37.218Z,18.10
2022-09-25T19:20:04.099Z,18.00
2022-09-25T19:22:31.372Z,17.80
2022-09-25T19:24:58.220Z,17.80
2022-09-25T19:27:25.572Z,17.90
2022-09-25T19:29:52.340Z,17.80
2022-09-25T19:32:19.054Z,17.70
2022-09-25T19:34:45.805Z,17.60
2022-09-25T19:37:15.872Z,17.50
2022-09-25T19:40:04.063Z,17.40
2022-09-25T19:42:33.665Z,17.30
2022-09-25T19:45:01.698Z,17.10
2022-09-25T19:47:28.697Z,17.00
2022-09-25T19:49:55.526Z,17.00
2022-09-25T19:52:22.399Z,17.20
2022-09-25T19:54:49.197Z,17.10
2022-09-25T19:57:15.934Z,16.90
2022-09-25T19:59:42.665Z,16.90
2022-09-25T20:02:09.579Z,16.80
2022-09-25T20:04:36.365Z,16.60
2022-09-25T20:07:03.190Z,16.70
2022-09-25T20:09:29.893Z,16.60
2022-09-25T20:11:56.589Z,16.60
2022-09-25T20:14:25.625Z,16.60
2022-09-25T20:16:53.731Z,16.60
2022-09-25T20:19:20.988Z,16.60
2022-09-25T20:21:47.833Z,16.40
2022-09-25T20:24:14.644Z,16.40
2022-09-25T20:26:42.089Z,16.30
2022-09-25T20:29:12.255Z,16.20
2022-09-25T20:31:40.465Z,16.20
2022-09-25T20:34:08.691Z,16.10
2022-09-25T20:36:38.007Z,16.20
2022-09-25T20:39:05.071Z,16.20
2022-09-25T20:41:31.838Z,16.10
2022-09-25T20:43:58.787Z,15.90
2022-09-25T20:46:26.401Z,15.80
2022-09-25T20:48:56.008Z,15.90
2022-09-25T20:51:27.478Z,15.90
2022-09-25T20:54:20.740Z,15.90
2022-09-25T20:56:47.522Z,15.90
2022-09-25T20:59:16.099Z,15.80
2022-09-25T21:01:42.940Z,15.70
2022-09-25T21:04:10.467Z,15.70
2022-09-25T21:06:38.627Z,15.90
2022-09-25T21:09:10.337Z,15.80
2022-09-25T21:11:40.395Z,15.70
2022-09-25T21:14:07.225Z,15.60
2022-09-25T21:16:34.058Z,15.50
2022-09-25T21:19:04.680Z,15.40
2022-09-25T21:21:32.182Z,15.40
2022-09-25T21:23:59.268Z,15.20
2022-09-25T21:26:27.334Z,15.20
2022-09-25T21:28:56.221Z,15.10
2022-09-25T21:31:24.761Z,15.00
2022-09-25T21:33:53.067Z,15.00
2022-09-25T21:36:20.328Z,15.00
2022-09-25T21:38:47.112Z,15.10
2022-09-25T21:41:15.542Z,15.00
2022-09-25T21:43:42.880Z,14.90
2022-09-25T21:46:16.894Z,15.00
2022-09-25T21:48:58.177Z,15.00
2022-09-25T21:51:26.971Z,15.00
2022-09-25T21:53:54.316Z,14.80
2022-09-25T21:56:22.778Z,14.90
2022-09-25T21:58:49.840Z,14.80
2022-09-25T22:01:18.669Z,14.70
2022-09-25T22:03:49.898Z,14.70
2022-09-25T22:06:18.407Z,14.80
2022-09-25T22:08:47.890Z,14.90
2022-09-25T22:11:15.033Z,14.80
2022-09-25T22:13:43.026Z,14.80
2022-09-25T22:16:11.193Z,14.80
2022-09-25T22:18:43.183Z,14.70
2022-09-25T22:21:10.948Z,14.70
2022-09-25T22:23:37.640Z,14.70
2022-09-25T22:26:04.765Z,14.70
2022-09-25T22:28:31.864Z,14.70
2022-09-25T22:31:03.131Z,14.60
2022-09-25T22:33:29.995Z,14.60
2022-09-25T22:36:00.329Z,14.60
2022-09-25T22:38:27.602Z,14.50
2022-09-25T22:40:54.349Z,14.50
2022-09-25T22:43:21.108Z,14.50
2022-09-25T22:45:51.170Z,14.50
2022-09-25T22:48:18.032Z,14.50
2022-09-25T22:51:01.428Z,14.60
2022-09-25T22:53:28.822Z,14.50
2022-09-25T22:55:55.633Z,14.40
2022-09-25T22:58:22.508Z,14.30
2022-09-25T23:00:51.512Z,14.30
2022-09-25T23:03:19.077Z,14.30
2022-09-25T23:05:45.945Z,14.30
2022-09-25T23:08:13.080Z,14.30
2022-09-25T23:11:05.729Z,14.20
2022-09-25T23:13:26.833Z,14.10
2022-09-25T23:15:53.644Z,14.10
2022-09-25T23:18:20.321Z,14.10
2022-09-25T23:20:52.288Z,14.20
2022-09-25T23:23:18.999Z,14.20
2022-09-25T23:25:46.531Z,14.20
2022-09-25T23:28:14.006Z,14.20
2022-09-25T23:30:40.772Z,14.30
2022-09-25T23:33:07.498Z,14.40
2022-09-25T23:35:34.588Z,14.40
2022-09-25T23:38:01.616Z,14.40
2022-09-25T23:40:29.282Z,14.50
2022-09-25T23:42:56.046Z,14.50
2022-09-25T23:45:22.765Z,14.40
2022-09-25T23:47:49.477Z,14.30
2022-09-25T23:50:16.189Z,14.20
2022-09-25T23:52:42.956Z,14.20
2022-09-25T23:55:09.892Z,14.30
2022-09-25T23:57:37.541Z,14.20
